Time;durP1;ratioP1;P1;durP2;ratioP2;P2;SDS_P1;SDS_P2;PMS_P1;PMS_P2;Temp;Humidity;BMP_temperature;BMP_pressure;BME280_temperature;BME280_humidity;BME280_pressure;Samples;Min_cycle;Max_cycle;Signal;HPM_P1;HPM_P2
2022/06/16 00:00:44;;;;;;;4.10;2.00;;;14.00;99.90;;;;;;5008462;28;20209;-62
2022/06/16 00:03:11;;;;;;;4.95;2.40;;;13.90;99.90;;;;;;4994254;28;20209;-63
2022/06/16 00:05:41;;;;;;;4.85;2.10;;;13.80;99.90;;;;;;5025702;28;20224;-63
2022/06/16 00:08:09;;;;;;;3.10;2.30;;;13.80;99.90;;;;;;5026566;28;20202;-62
2022/06/16 00:10:37;;;;;;;4.70;2.20;;;13.70;99.90;;;;;;5009573;28;20217;-63
2022/06/16 00:13:05;;;;;;;2.42;2.00;;;13.70;99.90;;;;;;5001399;28;20747;-62
2022/06/16 00:15:32;;;;;;;3.88;2.17;;;13.60;99.90;;;;;;5026391;28;20201;-62
2022/06/16 00:18:00;;;;;;;4.55;2.00;;;13.40;99.90;;;;;;5009879;28;20427;-62
2022/06/16 00:20:27;;;;;;;4.13;2.20;;;13.30;99.90;;;;;;5020220;28;20209;-63
2022/06/16 00:22:54;;;;;;;3.55;2.05;;;13.30;99.90;;;;;;5032805;28;20202;-62
2022/06/16 00:25:21;;;;;;;5.00;2.08;;;13.40;99.90;;;;;;4999894;28;20211;-63
2022/06/16 00:27:47;;;;;;;2.15;1.95;;;13.50;99.90;;;;;;4998029;28;20205;-63
2022/06/16 00:30:14;;;;;;;4.05;1.90;;;12.50;99.90;;;;;;5010932;28;20604;-63
2022/06/16 00:32:42;;;;;;;3.70;1.88;;;13.30;99.90;;;;;;4991594;28;20934;-65
2022/06/16 00:35:11;;;;;;;4.70;2.10;;;13.40;99.90;;;;;;5014485;28;20229;-62
2022/06/16 00:37:38;;;;;;;5.97;2.03;;;13.40;99.90;;;;;;5008133;28;20225;-63
2022/06/16 00:40:06;;;;;;;4.70;3.30;;;13.30;99.90;;;;;;5017958;28;20205;-62
2022/06/16 00:42:32;;;;;;;3.08;2.10;;;13.20;99.90;;;;;;4992926;28;20221;-62
2022/06/16 00:44:59;;;;;;;4.63;2.30;;;13.20;99.90;;;;;;5010632;28;20228;-62
2022/06/16 00:47:28;;;;;;;3.67;2.00;;;13.20;99.90;;;;;;5024919;28;20740;-63
2022/06/16 00:49:58;;;;;;;5.60;2.33;;;13.20;99.90;;;;;;4978264;28;20233;-63
2022/06/16 00:52:28;;;;;;;4.57;2.00;;;13.20;99.90;;;;;;5013077;28;20228;-62
2022/06/16 00:55:02;;;;;;;4.53;2.20;;;13.10;99.90;;;;;;5017084;28;20193;-63
2022/06/16 00:57:34;;;;;;;4.10;2.30;;;13.10;99.90;;;;;;4984889;28;20222;-62
2022/06/16 01:00:05;;;;;;;6.43;2.35;;;13.00;99.90;;;;;;5004931;28;20697;-62
2022/06/16 01:02:32;;;;;;;2.58;2.30;;;13.00;99.90;;;;;;5021660;28;20202;-63
2022/06/16 01:04:57;;;;;;;5.60;2.50;;;12.90;99.90;;;;;;5003113;28;20415;-62
2022/06/16 01:07:31;;;;;;;2.42;2.22;;;13.00;99.90;;;;;;5006820;28;20217;-63
2022/06/16 01:09:59;;;;;;;4.57;2.30;;;13.00;99.90;;;;;;4986486;28;20446;-62
2022/06/16 01:15:55;;;;;;;4.72;2.45;;;13.10;99.90;;;;;;5001618;28;20338;-62
2022/06/16 01:18:33;;;;;;;4.82;2.13;;;13.20;99.90;;;;;;5003295;28;20667;-62
2022/06/16 01:21:06;;;;;;;6.13;1.90;;;13.20;99.90;;;;;;5021036;28;20297;-62
2022/06/16 01:24:20;;;;;;;3.05;2.17;;;13.20;99.90;;;;;;4999288;28;20338;-62
2022/06/16 01:27:25;;;;;;;3.53;2.28;;;13.30;99.90;;;;;;5011844;28;20197;-63
2022/06/16 01:29:58;;;;;;;7.32;3.85;;;13.10;99.90;;;;;;4992698;28;20720;-62
2022/06/16 01:32:33;;;;;;;4.55;2.65;;;13.20;99.90;;;;;;5002129;28;20205;-62
2022/06/16 01:35:09;;;;;;;4.20;2.40;;;13.10;99.90;;;;;;4994377;28;20658;-63
2022/06/16 01:37:44;;;;;;;4.80;2.53;;;13.00;99.90;;;;;;5020335;28;20209;-62
2022/06/16 01:40:18;;;;;;;4.90;2.60;;;13.00;99.90;;;;;;5007297;28;20211;-63
2022/06/16 01:42:50;;;;;;;6.65;2.42;;;13.00;99.90;;;;;;5011303;28;20204;-63
2022/06/16 01:45:23;;;;;;;2.67;2.13;;;12.90;99.90;;;;;;4977121;28;20240;-62
2022/06/16 01:47:52;;;;;;;3.20;1.95;;;12.90;99.90;;;;;;5016442;28;20271;-62
2022/06/16 01:50:24;;;;;;;4.88;2.28;;;12.90;99.90;;;;;;4988316;28;20229;-62
2022/06/16 01:52:55;;;;;;;4.55;2.15;;;13.10;99.90;;;;;;5018245;28;20225;-63
2022/06/16 01:55:30;;;;;;;3.70;1.80;;;12.90;99.90;;;;;;4994448;28;20229;-63
2022/06/16 01:58:02;;;;;;;3.97;2.28;;;13.00;99.90;;;;;;5013848;28;20388;-62
2022/06/16 02:00:32;;;;;;;5.43;2.20;;;12.90;99.90;;;;;;5007484;28;20217;-63
2022/06/16 02:03:03;;;;;;;6.13;2.78;;;12.90;99.90;;;;;;5007936;28;21176;-62
2022/06/16 02:05:37;;;;;;;5.57;2.42;;;12.80;99.90;;;;;;5001831;28;20771;-62
2022/06/16 02:08:07;;;;;;;3.95;2.20;;;12.80;99.90;;;;;;5018430;28;20198;-62
2022/06/16 02:10:38;;;;;;;4.70;2.35;;;12.90;99.90;;;;;;5009313;28;20233;-62
2022/06/16 02:13:07;;;;;;;4.75;2.30;;;12.70;99.90;;;;;;5002622;28;20232;-62
2022/06/16 02:15:43;;;;;;;4.65;2.50;;;12.70;99.90;;;;;;5008312;28;20427;-62
2022/06/16 02:18:13;;;;;;;3.47;2.30;;;12.70;99.90;;;;;;5021417;28;20210;-63
2022/06/16 02:20:51;;;;;;;4.05;2.35;;;12.70;99.90;;;;;;5002003;28;20581;-62
2022/06/16 02:23:18;;;;;;;4.18;2.20;;;12.60;99.90;;;;;;5001554;28;21085;-63
2022/06/16 02:25:47;;;;;;;5.70;2.30;;;12.70;99.90;;;;;;5024343;28;20194;-62
2022/06/16 02:28:15;;;;;;;6.78;2.80;;;12.60;99.90;;;;;;5003225;28;20210;-63
2022/06/16 02:30:55;;;;;;;6.88;2.75;;;12.60;99.90;;;;;;4998982;28;20234;-63
2022/06/16 02:33:32;;;;;;;3.55;2.42;;;12.60;99.90;;;;;;5019027;28;20209;-62
2022/06/16 02:36:08;;;;;;;7.13;2.60;;;12.60;99.90;;;;;;5012000;28;20232;-65
2022/06/16 02:38:51;;;;;;;5.05;2.50;;;12.60;99.90;;;;;;5009877;28;20588;-62
2022/06/16 02:41:28;;;;;;;6.40;2.50;;;12.60;99.90;;;;;;5021651;28;20193;-63
2022/06/16 02:44:05;;;;;;;4.53;2.67;;;12.60;99.90;;;;;;5028825;28;20255;-62
2022/06/16 02:46:46;;;;;;;3.60;2.70;;;12.70;99.90;;;;;;4998484;28;20212;-63
2022/06/16 02:49:23;;;;;;;4.20;2.42;;;12.80;99.90;;;;;;5018136;28;20229;-63
2022/06/16 02:52:02;;;;;;;7.45;2.83;;;12.80;99.90;;;;;;4992603;28;20215;-63
2022/06/16 02:54:36;;;;;;;3.92;2.10;;;12.90;99.90;;;;;;5006750;28;20571;-63
2022/06/16 02:57:09;;;;;;;3.88;2.40;;;12.80;99.90;;;;;;4992328;28;20538;-63
2022/06/16 02:59:39;;;;;;;5.13;2.88;;;12.80;99.90;;;;;;5017505;28;20201;-63
2022/06/16 03:02:11;;;;;;;4.57;2.55;;;12.80;99.90;;;;;;5001712;28;20205;-62
2022/06/16 03:04:40;;;;;;;4.20;2.78;;;12.70;99.90;;;;;;5010082;28;20202;-62
2022/06/16 03:07:10;;;;;;;2.47;2.20;;;12.70;99.90;;;;;;5000390;28;20214;-62
2022/06/16 03:09:38;;;;;;;4.00;2.30;;;12.70;99.90;;;;;;5004948;28;20230;-62
2022/06/16 03:12:06;;;;;;;5.22;2.20;;;12.80;99.90;;;;;;5014182;28;20477;-63
2022/06/16 03:14:34;;;;;;;4.60;2.30;;;12.50;99.90;;;;;;5021044;28;20731;-62
2022/06/16 03:17:01;;;;;;;7.88;2.10;;;12.60;99.90;;;;;;5001431;28;20395;-62
2022/06/16 03:19:29;;;;;;;5.47;2.08;;;12.50;99.90;;;;;;5008473;28;20427;-62
2022/06/16 03:21:56;;;;;;;3.72;2.08;;;12.70;99.90;;;;;;4997309;28;20221;-62
2022/06/16 03:24:24;;;;;;;3.70;2.30;;;12.70;99.90;;;;;;5023005;28;20487;-62
2022/06/16 03:26:51;;;;;;;2.83;2.05;;;12.60;99.90;;;;;;5013875;28;20205;-62
2022/06/16 03:29:18;;;;;;;4.20;2.20;;;12.50;99.90;;;;;;5009082;28;20221;-62
2022/06/16 03:31:45;;;;;;;4.72;2.40;;;12.60;99.90;;;;;;5007053;28;20204;-63
2022/06/16 03:34:12;;;;;;;4.38;2.00;;;12.60;99.90;;;;;;4996173;28;20398;-62
2022/06/16 03:36:40;;;;;;;9.30;2.47;;;12.50;99.90;;;;;;5002482;28;21229;-62
2022/06/16 03:39:08;;;;;;;3.13;1.98;;;12.40;99.90;;;;;;5015852;28;20687;-63
2022/06/16 03:41:34;;;;;;;4.28;1.83;;;12.50;99.90;;;;;;5016274;28;20213;-62
2022/06/16 03:44:02;;;;;;;2.03;1.80;;;12.50;99.90;;;;;;5006062;28;20204;-63
2022/06/16 03:46:28;;;;;;;5.20;1.88;;;12.50;99.90;;;;;;5009634;28;20210;-62
2022/06/16 03:48:55;;;;;;;2.80;1.95;;;12.60;99.90;;;;;;5009095;28;20205;-62
2022/06/16 03:51:22;;;;;;;4.28;1.98;;;12.70;99.90;;;;;;5018991;28;20225;-62
2022/06/16 03:53:50;;;;;;;4.90;2.08;;;12.80;99.90;;;;;;4995239;28;20202;-62
2022/06/16 03:56:17;;;;;;;3.08;2.05;;;12.90;99.90;;;;;;4996859;28;20458;-62
2022/06/16 03:58:44;;;;;;;4.07;2.15;;;12.90;99.90;;;;;;5024672;28;20194;-62
2022/06/16 04:01:12;;;;;;;3.42;2.03;;;13.00;99.90;;;;;;5003330;28;20205;-62
2022/06/16 04:06:23;;;;;;;3.88;2.40;;;12.90;99.90;;;;;;5001461;28;20336;-62
2022/06/16 04:08:51;;;;;;;4.45;2.50;;;12.90;99.90;;;;;;5003463;28;20213;-61
2022/06/16 04:11:31;;;;;;;3.17;2.38;;;12.80;99.90;;;;;;5018980;28;20229;-62
2022/06/16 04:14:02;;;;;;;6.10;2.80;;;12.50;99.90;;;;;;4999452;28;20522;-62
2022/06/16 04:16:31;;;;;;;5.07;2.10;;;12.50;99.90;;;;;;5019182;28;20209;-62
2022/06/16 04:18:58;;;;;;;2.50;2.30;;;12.30;99.90;;;;;;4996010;28;21325;-62
2022/06/16 04:21:24;;;;;;;2.50;2.08;;;12.40;99.90;;;;;;4995243;28;20229;-62
2022/06/16 04:23:54;;;;;;;5.30;2.60;;;12.40;99.90;;;;;;5001178;28;20213;-62
2022/06/16 04:26:21;;;;;;;5.47;2.20;;;12.50;99.90;;;;;;5012812;28;20264;-62
2022/06/16 04:28:48;;;;;;;7.18;2.40;;;12.50;99.90;;;;;;5009348;28;20217;-63
2022/06/16 04:31:15;;;;;;;3.55;2.53;;;12.50;99.90;;;;;;5017704;28;20972;-62
2022/06/16 04:33:43;;;;;;;6.78;2.83;;;12.50;99.90;;;;;;5006775;28;20217;-62
2022/06/16 04:36:10;;;;;;;7.32;2.88;;;12.50;99.90;;;;;;4995043;28;21005;-62
2022/06/16 04:38:37;;;;;;;6.70;2.58;;;12.50;99.90;;;;;;5016542;28;20226;-62
2022/06/16 04:41:05;;;;;;;5.82;3.08;;;12.20;99.90;;;;;;4986011;28;20437;-62
2022/06/16 04:43:33;;;;;;;4.18;2.67;;;12.60;99.90;;;;;;5005695;28;20635;-61
2022/06/16 04:46:00;;;;;;;3.20;2.42;;;12.60;99.90;;;;;;4994954;28;20205;-62
2022/06/16 04:48:28;;;;;;;8.55;3.90;;;12.50;99.90;;;;;;4983290;28;21028;-61
2022/06/16 04:50:55;;;;;;;6.57;3.10;;;;;;;;;;4995749;28;20234;-62
2022/06/16 04:53:22;;;;;;;7.00;3.40;;;12.60;99.90;;;;;;4987560;28;20206;-62
2022/06/16 04:55:54;;;;;;;5.57;3.05;;;12.70;99.90;;;;;;4991651;28;20280;-62
2022/06/16 04:58:22;;;;;;;6.18;3.20;;;12.70;99.90;;;;;;5014449;28;20221;-62
2022/06/16 05:00:50;;;;;;;5.57;2.95;;;12.80;99.90;;;;;;5014847;28;20209;-62
2022/06/16 05:03:18;;;;;;;3.67;2.78;;;13.10;99.90;;;;;;5008788;28;20233;-62
2022/06/16 05:05:46;;;;;;;4.88;2.92;;;13.10;99.90;;;;;;4988027;28;20225;-62
2022/06/16 05:08:13;;;;;;;3.33;2.50;;;13.40;99.90;;;;;;4998610;28;20285;-62
2022/06/16 05:10:40;;;;;;;4.13;2.63;;;13.30;99.90;;;;;;4985993;28;20279;-62
2022/06/16 05:13:08;;;;;;;5.88;2.72;;;13.40;99.90;;;;;;5018151;28;20221;-62
2022/06/16 05:15:36;;;;;;;6.68;3.38;;;13.50;99.90;;;;;;5008414;28;20201;-62
2022/06/16 05:18:05;;;;;;;4.43;3.10;;;13.70;99.90;;;;;;5005156;28;20205;-62
2022/06/16 05:20:32;;;;;;;7.05;3.30;;;13.70;99.90;;;;;;5003654;28;20233;-62
2022/06/16 05:22:58;;;;;;;4.43;2.75;;;14.00;99.90;;;;;;4993215;28;20229;-62
2022/06/16 05:25:25;;;;;;;6.00;3.50;;;14.00;99.90;;;;;;4988651;28;20210;-63
2022/06/16 05:27:52;;;;;;;6.10;3.38;;;14.10;99.90;;;;;;5001137;28;20703;-63
2022/06/16 05:30:19;;;;;;;4.15;3.10;;;14.10;99.90;;;;;;5023238;28;20229;-63
2022/06/16 05:32:47;;;;;;;3.05;2.75;;;14.20;99.90;;;;;;5006287;28;20225;-63
2022/06/16 05:35:14;;;;;;;5.63;3.03;;;14.30;99.90;;;;;;5016070;28;20702;-62
2022/06/16 05:37:41;;;;;;;4.18;3.00;;;14.40;99.90;;;;;;5000758;28;20214;-63
2022/06/16 05:40:08;;;;;;;3.65;2.80;;;14.40;99.90;;;;;;5022852;28;20316;-63
2022/06/16 05:42:35;;;;;;;4.82;2.35;;;14.50;99.90;;;;;;5002094;28;20228;-62
2022/06/16 05:45:03;;;;;;;4.85;2.70;;;14.70;99.90;;;;;;5003774;28;20998;-63
2022/06/16 05:47:30;;;;;;;5.00;2.72;;;14.50;99.90;;;;;;5007786;28;20213;-63
2022/06/16 05:49:59;;;;;;;2.88;2.35;;;14.60;99.90;;;;;;4990686;28;20878;-63
2022/06/16 05:52:25;;;;;;;6.60;2.30;;;14.70;99.90;;;;;;5015850;28;20232;-63
2022/06/16 05:54:54;;;;;;;10.38;2.50;;;14.80;99.90;;;;;;5007082;28;20228;-62
2022/06/16 05:57:21;;;;;;;3.50;2.30;;;14.80;99.90;;;;;;5000558;28;20244;-63
2022/06/16 05:59:48;;;;;;;4.93;2.20;;;14.90;99.90;;;;;;4994669;28;20237;-61
2022/06/16 06:02:18;;;;;;;2.08;1.85;;;15.60;99.90;;;;;;5023077;28;20233;-61
2022/06/16 06:04:47;;;;;;;5.65;2.22;;;15.00;99.90;;;;;;5005973;28;20203;-60
2022/06/16 06:07:15;;;;;;;5.60;2.13;;;15.10;99.90;;;;;;5011989;28;20217;-61
2022/06/16 06:18:09;;;;;;;2.65;1.90;;;15.20;99.90;;;;;;5023300;28;20283;-61
2022/06/16 06:20:36;;;;;;;2.45;1.67;;;15.20;99.90;;;;;;5012025;28;20691;-62
2022/06/16 06:23:05;;;;;;;9.30;2.50;;;15.20;99.90;;;;;;5011820;28;20689;-62
2022/06/16 06:25:32;;;;;;;5.70;1.65;;;15.30;99.90;;;;;;5002652;28;20218;-62
2022/06/16 06:27:58;;;;;;;3.88;2.03;;;15.20;99.90;;;;;;5004926;28;20217;-61
2022/06/16 06:30:29;;;;;;;5.47;1.42;;;15.40;99.90;;;;;;5000242;28;20228;-62
2022/06/16 06:32:57;;;;;;;5.40;1.60;;;15.40;99.90;;;;;;5003301;28;20228;-62
2022/06/16 06:35:24;;;;;;;4.07;1.77;;;15.50;99.90;;;;;;5006542;28;20226;-62
2022/06/16 06:37:52;;;;;;;6.32;1.77;;;15.10;99.90;;;;;;5025429;28;20197;-62
2022/06/16 06:40:23;;;;;;;2.13;1.50;;;15.60;99.90;;;;;;4996600;28;20221;-61
2022/06/16 06:42:50;;;;;;;1.38;1.27;;;15.50;99.90;;;;;;5007225;28;20209;-61
2022/06/16 06:45:17;;;;;;;5.10;1.80;;;15.70;99.90;;;;;;5009198;28;20217;-62
2022/06/16 06:47:45;;;;;;;7.53;1.67;;;15.90;99.90;;;;;;5016771;28;20206;-62
2022/06/16 06:50:18;;;;;;;7.93;1.83;;;15.70;99.90;;;;;;5006193;28;20213;-62
2022/06/16 06:52:45;;;;;;;4.43;1.55;;;15.80;99.90;;;;;;5029651;28;20201;-62
2022/06/16 06:55:12;;;;;;;1.92;1.50;;;15.80;99.90;;;;;;5016016;28;20213;-62
2022/06/16 06:57:40;;;;;;;7.53;1.90;;;15.80;99.90;;;;;;4996356;28;20201;-61
2022/06/16 07:00:08;;;;;;;3.03;1.70;;;15.90;99.90;;;;;;5026991;28;20229;-61
2022/06/16 07:02:35;;;;;;;2.08;1.25;;;15.90;99.90;;;;;;5004001;28;20225;-61
2022/06/16 07:05:02;;;;;;;6.20;1.33;;;16.00;99.90;;;;;;5016821;28;20236;-61
2022/06/16 07:07:29;;;;;;;4.05;1.67;;;16.10;99.90;;;;;;5017252;28;20205;-62
2022/06/16 07:09:56;;;;;;;3.97;1.55;;;16.10;99.90;;;;;;5011038;28;20209;-62
2022/06/16 07:12:23;;;;;;;7.65;1.80;;;16.10;99.90;;;;;;5013908;28;20221;-62
2022/06/16 07:14:52;;;;;;;2.38;1.17;;;16.00;99.90;;;;;;5005924;28;20237;-62
2022/06/16 07:17:21;;;;;;;1.80;1.40;;;16.00;99.90;;;;;;5017882;28;21056;-62
2022/06/16 07:19:48;;;;;;;3.75;1.35;;;16.10;99.90;;;;;;4991532;28;20406;-61
2022/06/16 07:22:15;;;;;;;1.10;1.00;;;17.10;99.90;;;;;;5000848;28;21043;-62
2022/06/16 07:24:42;;;;;;;4.15;1.65;;;16.20;99.90;;;;;;5005070;28;20202;-61
2022/06/16 07:27:10;;;;;;;1.33;1.05;;;16.20;99.90;;;;;;5007768;28;20496;-61
2022/06/16 07:29:38;;;;;;;4.18;2.08;;;16.20;99.90;;;;;;5007903;28;20725;-62
2022/06/16 07:32:07;;;;;;;2.65;1.25;;;16.30;99.90;;;;;;5002706;28;20229;-62
2022/06/16 07:34:34;;;;;;;4.22;1.35;;;16.20;99.90;;;;;;5029718;28;20205;-61
2022/06/16 07:37:01;;;;;;;4.00;1.40;;;16.30;99.90;;;;;;5018581;28;20198;-62
2022/06/16 07:39:28;;;;;;;4.53;1.30;;;16.40;99.90;;;;;;5015057;28;20978;-62
2022/06/16 07:41:55;;;;;;;1.58;1.20;;;16.50;99.90;;;;;;5013264;28;20210;-62
2022/06/16 07:44:21;;;;;;;2.97;1.33;;;16.80;99.90;;;;;;5005372;28;20220;-62
2022/06/16 07:46:48;;;;;;;2.78;1.35;;;16.60;99.90;;;;;;5032667;28;20221;-62
2022/06/16 07:49:22;;;;;;;1.75;1.30;;;16.70;99.90;;;;;;5007230;28;20213;-62
2022/06/16 07:51:49;;;;;;;2.40;1.50;;;16.60;99.90;;;;;;5026702;28;20295;-61
2022/06/16 07:54:17;;;;;;;6.03;1.60;;;16.70;99.90;;;;;;5008658;28;20599;-62
2022/06/16 07:56:45;;;;;;;2.17;1.33;;;16.70;99.90;;;;;;4995431;28;20230;-61
2022/06/16 07:59:12;;;;;;;1.58;1.40;;;16.80;99.90;;;;;;5024899;28;20206;-62
2022/06/16 08:01:39;;;;;;;6.47;1.58;;;16.90;99.90;;;;;;4998159;28;20205;-61
2022/06/16 08:04:06;;;;;;;3.03;1.10;;;16.90;99.90;;;;;;5015543;28;20220;-61
2022/06/16 08:06:36;;;;;;;2.97;1.50;;;17.00;99.90;;;;;;5022957;28;20708;-61
2022/06/16 08:09:05;;;;;;;2.58;1.67;;;17.00;99.90;;;;;;5025939;28;20197;-62
2022/06/16 08:14:17;;;;;;;2.63;1.20;;;16.80;99.90;;;;;;5019880;28;20232;-61
2022/06/16 08:16:44;;;;;;;1.90;1.13;;;16.90;99.90;;;;;;5002953;28;20217;-61
2022/06/16 08:19:11;;;;;;;2.72;1.20;;;16.80;99.90;;;;;;5009364;28;20671;-61
2022/06/16 08:21:39;;;;;;;2.60;1.35;;;16.80;99.90;;;;;;5023789;28;20201;-63
2022/06/16 08:24:07;;;;;;;2.45;1.50;;;16.90;99.90;;;;;;5011305;28;20500;-62
2022/06/16 08:26:36;;;;;;;3.40;1.38;;;16.90;99.90;;;;;;5007293;28;20285;-61
2022/06/16 08:29:05;;;;;;;7.15;1.40;;;17.00;99.90;;;;;;5013944;28;20224;-61
2022/06/16 08:31:32;;;;;;;2.67;1.10;;;16.90;99.90;;;;;;5000782;28;20821;-62
2022/06/16 08:34:00;;;;;;;2.17;1.40;;;16.90;99.90;;;;;;5012888;28;20274;-63
2022/06/16 08:36:26;;;;;;;2.65;1.30;;;16.90;99.90;;;;;;5016497;28;20228;-61
2022/06/16 08:38:54;;;;;;;1.75;1.20;;;16.90;99.90;;;;;;5025953;28;20433;-62
2022/06/16 08:41:28;;;;;;;2.88;1.10;;;17.00;99.90;;;;;;5005760;28;20845;-62
2022/06/16 08:44:03;;;;;;;2.90;1.10;;;17.10;99.90;;;;;;5009012;28;20315;-62
2022/06/16 08:46:36;;;;;;;2.97;1.13;;;17.10;99.90;;;;;;5024432;28;20237;-61
2022/06/16 08:49:10;;;;;;;1.15;1.02;;;17.20;99.90;;;;;;4990114;28;20346;-62
2022/06/16 08:51:46;;;;;;;2.67;1.23;;;17.20;99.90;;;;;;5017880;28;20221;-61
2022/06/16 08:54:25;;;;;;;1.55;1.40;;;17.30;99.90;;;;;;5013012;28;20208;-62
2022/06/16 08:56:59;;;;;;;1.33;0.90;;;17.40;99.90;;;;;;5002598;28;20234;-62
2022/06/16 08:59:34;;;;;;;1.45;1.10;;;17.30;99.90;;;;;;5005382;28;20230;-61
2022/06/16 09:02:05;;;;;;;1.60;1.08;;;16.80;99.90;;;;;;5019042;28;20292;-62
2022/06/16 09:04:34;;;;;;;2.92;1.60;;;17.50;99.90;;;;;;5001694;28;20234;-62
2022/06/16 09:07:14;;;;;;;3.65;1.02;;;17.50;99.90;;;;;;5006960;28;20229;-62
2022/06/16 09:12:57;;;;;;;1.92;1.00;;;17.50;99.90;;;;;;4990924;28;20530;-61
2022/06/16 09:15:33;;;;;;;3.47;1.25;;;17.60;99.90;;;;;;4995911;28;20201;-62
2022/06/16 09:18:24;;;;;;;2.58;0.93;;;17.60;99.90;;;;;;5010170;28;20220;-61
2022/06/16 09:20:58;;;;;;;3.55;1.20;;;17.70;99.90;;;;;;5013749;28;20233;-61
2022/06/16 09:23:45;;;;;;;3.55;1.10;;;17.60;99.90;;;;;;5022171;28;20213;-61
2022/06/16 09:26:21;;;;;;;2.15;1.10;;;17.80;99.90;;;;;;5013417;28;20282;-62
2022/06/16 09:28:54;;;;;;;2.10;1.20;;;17.80;99.90;;;;;;5006285;28;20206;-62
2022/06/16 09:31:27;;;;;;;1.55;0.90;;;17.80;99.90;;;;;;5023252;28;20621;-62
2022/06/16 09:33:59;;;;;;;2.80;1.00;;;17.90;99.90;;;;;;5033519;28;20208;-62
2022/06/16 09:36:30;;;;;;;2.20;0.88;;;17.80;99.90;;;;;;4982659;28;21504;-62
2022/06/16 09:39:02;;;;;;;3.55;0.90;;;17.90;99.90;;;;;;5021098;28;20202;-62
2022/06/16 09:44:27;;;;;;;1.88;0.82;;;17.90;99.90;;;;;;4994221;28;20306;-63
2022/06/16 09:46:57;;;;;;;1.45;1.13;;;18.10;99.90;;;;;;5015762;28;20211;-62
2022/06/16 09:49:27;;;;;;;3.83;0.98;;;18.20;99.90;;;;;;5021428;28;20213;-62
2022/06/16 09:51:59;;;;;;;2.08;0.98;;;18.20;99.90;;;;;;4994720;28;20225;-62
2022/06/16 09:54:30;;;;;;;1.17;0.98;;;18.20;99.90;;;;;;5027356;28;20216;-62
2022/06/16 09:57:01;;;;;;;0.95;0.93;;;18.30;99.90;;;;;;5023013;28;20229;-63
2022/06/16 09:59:32;;;;;;;0.95;0.80;;;18.50;99.90;;;;;;5010231;28;20232;-63
2022/06/16 10:02:03;;;;;;;1.83;0.80;;;18.40;99.90;;;;;;5012247;28;20217;-62
2022/06/16 10:04:30;;;;;;;1.17;0.85;;;18.50;99.90;;;;;;5022531;28;21529;-61
2022/06/16 10:07:04;;;;;;;1.30;0.90;;;18.50;99.90;;;;;;4995682;28;20224;-62
2022/06/16 10:09:39;;;;;;;1.65;0.80;;;18.70;99.90;;;;;;5012244;28;20217;-62
2022/06/16 10:12:15;;;;;;;1.15;0.90;;;18.80;99.90;;;;;;5019694;28;20231;-62
2022/06/16 10:14:47;;;;;;;2.03;0.82;;;18.80;99.90;;;;;;5010865;28;20198;-62
2022/06/16 10:17:17;;;;;;;2.60;0.88;;;18.80;99.90;;;;;;5031546;28;20601;-62
2022/06/16 10:19:46;;;;;;;2.15;1.00;;;18.80;99.90;;;;;;5025019;28;20303;-62
2022/06/16 10:22:16;;;;;;;2.13;1.00;;;18.80;99.90;;;;;;5016165;28;20691;-62
2022/06/16 10:24:55;;;;;;;0.98;0.88;;;18.90;99.90;;;;;;5028032;28;20737;-62
2022/06/16 10:27:29;;;;;;;2.30;1.00;;;18.90;99.90;;;;;;5024712;28;20214;-62
2022/06/16 10:29:58;;;;;;;1.88;1.08;;;18.90;99.90;;;;;;5036087;28;20356;-62
2022/06/16 10:32:41;;;;;;;1.33;1.02;;;19.00;99.90;;;;;;5023011;28;20233;-62
2022/06/16 10:35:16;;;;;;;2.45;1.13;;;19.00;99.90;;;;;;5039243;28;20591;-62
2022/06/16 10:37:45;;;;;;;2.90;0.90;;;18.90;99.90;;;;;;5012307;28;20777;-62
2022/06/16 10:40:16;;;;;;;1.25;0.88;;;18.70;99.90;;;;;;5037610;28;20197;-62
2022/06/16 10:42:47;;;;;;;1.42;0.88;;;18.70;99.90;;;;;;5032371;28;20250;-62
2022/06/16 10:45:21;;;;;;;1.70;0.80;;;18.80;99.90;;;;;;5031901;28;20193;-62
2022/06/16 10:47:51;;;;;;;1.15;0.90;;;18.90;99.90;;;;;;5017213;28;20228;-62
2022/06/16 10:50:23;;;;;;;3.15;0.88;;;19.00;99.90;;;;;;5035087;28;20608;-62
2022/06/16 10:52:54;;;;;;;1.15;0.90;;;19.00;99.90;;;;;;5017158;28;20233;-62
2022/06/16 10:55:25;;;;;;;0.98;0.90;;;19.10;99.90;;;;;;5037934;28;20210;-62
2022/06/16 10:58:01;;;;;;;1.45;0.73;;;19.00;99.90;;;;;;5021309;28;20229;-62
2022/06/16 11:00:32;;;;;;;2.08;0.88;;;19.10;99.90;;;;;;5033446;28;20201;-62
2022/06/16 11:03:15;;;;;;;2.30;1.00;;;19.20;99.90;;;;;;5007371;28;20396;-62
2022/06/16 11:05:52;;;;;;;2.78;1.00;;;19.10;99.90;;;;;;5014736;28;20812;-63
2022/06/16 11:08:20;;;;;;;3.10;1.20;;;19.10;99.90;;;;;;4992618;28;20736;-62
2022/06/16 11:10:53;;;;;;;2.78;1.10;;;19.20;99.90;;;;;;5017121;28;20213;-62
2022/06/16 11:13:28;;;;;;;1.25;0.95;;;19.20;99.90;;;;;;5023350;28;20372;-62
2022/06/16 11:15:55;;;;;;;1.25;0.95;;;19.20;99.90;;;;;;5016246;28;20217;-62
2022/06/16 11:18:24;;;;;;;3.08;1.17;;;19.30;99.90;;;;;;5007985;28;20624;-63
2022/06/16 11:20:53;;;;;;;2.80;1.05;;;19.30;99.90;;;;;;5028187;28;20217;-62
2022/06/16 11:23:28;;;;;;;1.45;1.00;;;18.50;99.90;;;;;;5007857;28;20213;-62
2022/06/16 11:25:59;;;;;;;1.40;0.75;;;19.30;99.90;;;;;;5003666;28;20541;-61
2022/06/16 11:28:28;;;;;;;2.47;0.80;;;19.30;99.90;;;;;;5023892;28;20297;-62
2022/06/16 11:30:59;;;;;;;2.15;0.98;;;19.30;99.90;;;;;;5027574;28;20193;-62
2022/06/16 11:36:23;;;;;;;0.77;0.77;;;19.60;99.90;;;;;;5017068;28;20714;-62
2022/06/16 11:38:57;;;;;;;2.70;1.13;;;19.60;99.90;;;;;;5013979;28;20208;-62
2022/06/16 11:41:26;;;;;;;0.73;0.73;;;19.50;99.90;;;;;;5006457;28;20204;-62
2022/06/16 11:44:16;;;;;;;2.55;1.15;;;19.50;99.90;;;;;;5030544;28;20572;-62
2022/06/16 11:46:49;;;;;;;3.28;1.05;;;19.60;99.90;;;;;;5026189;28;20481;-62
2022/06/16 11:49:28;;;;;;;3.20;1.00;;;19.50;99.90;;;;;;5013040;28;20442;-63
2022/06/16 11:52:03;;;;;;;9.50;0.93;;;19.50;99.90;;;;;;5022802;28;20189;-63
2022/06/16 11:54:41;;;;;;;1.83;0.98;;;19.60;99.90;;;;;;5006724;28;20220;-62
2022/06/16 11:57:23;;;;;;;4.72;1.30;;;19.50;99.90;;;;;;5004406;28;20225;-63
2022/06/16 12:00:14;;;;;;;1.67;1.10;;;19.40;99.90;;;;;;5025621;28;20663;-63
2022/06/16 12:03:22;;;;;;;2.58;1.20;;;19.50;99.90;;;;;;4990896;28;20326;-63
2022/06/16 12:06:04;;;;;;;2.65;1.20;;;19.60;99.90;;;;;;4962463;28;20659;-63
2022/06/16 12:08:46;;;;;;;7.20;1.45;;;19.90;99.90;;;;;;4995218;28;20221;-62
2022/06/16 12:11:24;;;;;;;4.32;1.38;;;19.80;99.90;;;;;;5016505;28;20208;-63
2022/06/16 12:14:03;;;;;;;2.17;0.90;;;19.80;99.90;;;;;;5023765;28;20422;-63
2022/06/16 12:16:35;;;;;;;5.40;1.17;;;19.70;99.90;;;;;;5016369;28;20202;-63
2022/06/16 12:19:13;;;;;;;2.85;1.35;;;19.80;99.90;;;;;;5016796;28;20226;-63
2022/06/16 12:21:44;;;;;;;2.35;1.10;;;19.70;99.90;;;;;;5018274;28;20711;-62
2022/06/16 12:24:20;;;;;;;3.03;1.10;;;19.70;99.90;;;;;;5020953;28;20209;-62
2022/06/16 12:26:52;;;;;;;1.17;1.00;;;19.80;99.90;;;;;;5005431;28;20299;-63
2022/06/16 12:29:29;;;;;;;0.98;0.95;;;19.80;99.90;;;;;;5024594;28;20202;-62
2022/06/16 12:32:06;;;;;;;2.80;1.05;;;19.70;99.90;;;;;;5023529;28;20204;-63
2022/06/16 12:34:41;;;;;;;1.80;1.15;;;18.80;99.90;;;;;;5006282;28;20259;-63
2022/06/16 12:37:14;;;;;;;5.15;0.90;;;19.70;99.90;;;;;;4991457;28;20245;-62
2022/06/16 12:39:46;;;;;;;2.30;1.10;;;19.70;99.90;;;;;;4991212;28;21142;-62
2022/06/16 12:42:16;;;;;;;2.45;1.20;;;19.50;99.90;;;;;;4998341;28;20336;-62
2022/06/16 12:44:47;;;;;;;4.65;1.33;;;19.50;99.90;;;;;;4999474;28;20722;-62
2022/06/16 12:47:21;;;;;;;4.80;1.30;;;19.60;99.90;;;;;;5034090;22;20698;-62
2022/06/16 12:49:56;;;;;;;2.90;1.30;;;19.50;99.90;;;;;;5015629;28;20224;-62
2022/06/16 12:52:27;;;;;;;4.03;1.33;;;19.60;99.90;;;;;;5028458;28;20275;-62
2022/06/16 12:55:01;;;;;;;3.00;1.20;;;19.70;99.90;;;;;;5022337;28;20228;-62
2022/06/16 12:57:33;;;;;;;2.05;1.15;;;19.70;99.90;;;;;;5021048;28;20609;-62
2022/06/16 13:00:02;;;;;;;2.90;1.05;;;19.80;99.90;;;;;;5017975;22;20237;-62
2022/06/16 13:02:35;;;;;;;2.05;1.30;;;19.70;99.90;;;;;;5020839;28;20245;-62
2022/06/16 13:05:08;;;;;;;2.55;1.45;;;19.80;99.90;;;;;;4992077;28;20228;-62
2022/06/16 13:07:39;;;;;;;6.60;1.95;;;19.60;99.90;;;;;;4996606;28;20372;-63
2022/06/16 13:10:07;;;;;;;5.18;2.22;;;19.60;99.90;;;;;;4998530;28;20971;-62
2022/06/16 13:12:39;;;;;;;2.10;1.38;;;19.70;99.90;;;;;;4998431;28;20229;-63
2022/06/16 13:15:10;;;;;;;2.10;1.30;;;19.90;99.90;;;;;;5003108;28;20265;-62
2022/06/16 13:17:53;;;;;;;2.55;1.40;;;19.90;99.90;;;;;;5016938;28;20583;-63
2022/06/16 13:20:26;;;;;;;2.97;1.58;;;19.80;99.90;;;;;;5003498;28;20205;-63
2022/06/16 13:22:57;;;;;;;1.92;1.23;;;19.80;99.90;;;;;;5007693;28;20251;-63
2022/06/16 13:25:47;;;;;;;2.13;1.42;;;19.80;99.90;;;;;;5008431;28;20208;-62
2022/06/16 13:28:18;;;;;;;4.55;1.80;;;19.90;99.90;;;;;;4980558;28;20206;-63
2022/06/16 13:31:01;;;;;;;2.88;1.20;;;19.90;99.90;;;;;;5012752;28;20225;-62
2022/06/16 13:33:44;;;;;;;3.38;1.42;;;19.90;99.90;;;;;;5006765;28;22986;-63